Time;durP1;ratioP1;P1;durP2;ratioP2;P2;SDS_P1;SDS_P2;PMS_P1;PMS_P2;Temp;Humidity;BMP_temperature;BMP_pressure;BME280_temperature;BME280_humidity;BME280_pressure;Samples;Min_cycle;Max_cycle;Signal;HPM_P1;HPM_P2
2022/10/28 00:01:06;;;;;;;16.67;8.02;;;15.30;99.90;;;;;;4933997;28;20034;-87
2022/10/28 00:03:36;;;;;;;12.75;8.45;;;15.30;99.90;;;;;;4921355;28;20042;-88
2022/10/28 00:06:04;;;;;;;16.13;9.02;;;15.20;99.90;;;;;;4943281;28;20691;-88
2022/10/28 00:08:30;;;;;;;18.60;9.10;;;15.40;99.90;;;;;;4948328;28;20042;-87
2022/10/28 00:11:29;;;;;;;17.73;8.35;;;15.20;99.90;;;;;;4944558;28;20548;-88
2022/10/28 00:13:58;;;;;;;19.58;8.32;;;15.10;99.90;;;;;;4937356;28;20043;-87
2022/10/28 00:16:27;;;;;;;20.27;8.90;;;15.10;99.90;;;;;;4946547;28;20047;-88
2022/10/28 00:18:53;;;;;;;14.80;9.05;;;15.00;99.90;;;;;;4964245;28;20105;-87
2022/10/28 00:21:23;;;;;;;22.00;9.23;;;14.90;99.90;;;;;;4933352;28;20047;-87
2022/10/28 00:23:49;;;;;;;19.27;8.63;;;14.90;99.90;;;;;;4978638;28;20496;-88
2022/10/28 00:26:16;;;;;;;20.85;9.20;;;14.90;99.90;;;;;;4968698;28;20081;-87
2022/10/28 00:28:46;;;;;;;17.88;9.43;;;14.80;99.90;;;;;;4947807;28;20101;-88
2022/10/28 00:31:14;;;;;;;17.80;9.40;;;14.80;99.90;;;;;;4946290;28;20098;-88
2022/10/28 00:33:40;;;;;;;18.00;9.60;;;14.80;99.90;;;;;;4964769;28;20124;-87
2022/10/28 00:36:14;;;;;;;16.63;10.40;;;14.70;99.90;;;;;;4932478;28;20457;-87
2022/10/28 00:38:42;;;;;;;14.23;9.02;;;14.70;99.90;;;;;;4947965;28;20038;-87
2022/10/28 00:41:09;;;;;;;23.10;9.82;;;14.70;99.90;;;;;;4956184;28;21368;-88
2022/10/28 00:43:37;;;;;;;19.13;9.50;;;14.70;99.90;;;;;;4947306;28;20039;-87
2022/10/28 00:46:06;;;;;;;19.48;10.43;;;14.70;99.90;;;;;;4950575;28;20294;-87
2022/10/28 00:48:32;;;;;;;21.40;10.07;;;14.70;99.90;;;;;;4952238;28;20466;-88
2022/10/28 00:50:58;;;;;;;17.58;9.65;;;14.70;99.90;;;;;;4933935;28;20038;-87
2022/10/28 00:53:27;;;;;;;18.10;9.35;;;14.70;99.90;;;;;;4969850;28;20039;-87
2022/10/28 00:55:55;;;;;;;18.33;9.23;;;14.70;99.90;;;;;;4956940;28;20915;-87
2022/10/28 00:58:24;;;;;;;23.45;9.68;;;14.70;99.90;;;;;;4955230;28;20523;-86
2022/10/28 01:00:49;;;;;;;21.45;8.65;;;14.70;99.90;;;;;;4954238;28;20039;-88
2022/10/28 01:03:16;;;;;;;14.63;8.90;;;14.70;99.90;;;;;;4923984;28;20038;-88
2022/10/28 01:05:45;;;;;;;18.45;8.80;;;14.70;99.90;;;;;;4964376;28;20103;-87
2022/10/28 01:08:11;;;;;;;16.90;9.93;;;14.70;99.90;;;;;;4958195;28;20102;-88
2022/10/28 01:10:55;;;;;;;21.92;9.82;;;14.60;99.90;;;;;;4959481;28;20074;-87
2022/10/28 01:13:56;;;;;;;13.68;8.85;;;14.60;99.90;;;;;;4955716;28;20038;-87
2022/10/28 01:16:34;;;;;;;17.67;9.18;;;14.60;99.90;;;;;;4952960;28;20094;-87
2022/10/28 01:19:38;;;;;;;16.17;8.98;;;14.50;99.90;;;;;;4953679;28;20050;-87
2022/10/28 01:22:22;;;;;;;14.57;9.07;;;14.50;99.90;;;;;;4954727;28;20046;-87
2022/10/28 01:25:25;;;;;;;18.10;9.40;;;14.50;99.90;;;;;;4954765;28;20041;-87
2022/10/28 01:27:51;;;;;;;;;;;14.50;99.90;;;;;;4955118;28;20172;-87
2022/10/28 01:30:26;;;;;;;19.77;9.10;;;14.50;99.90;;;;;;4970365;28;19918;-87
2022/10/28 01:33:05;;;;;;;14.35;8.85;;;14.50;99.90;;;;;;4955655;28;20098;-87
2022/10/28 01:35:37;;;;;;;19.42;9.30;;;14.50;99.90;;;;;;4957326;28;20038;-87
2022/10/28 01:38:09;;;;;;;18.88;9.02;;;14.50;99.90;;;;;;4953365;28;20034;-87
2022/10/28 01:40:45;;;;;;;15.90;9.85;;;14.40;99.90;;;;;;4971846;28;20043;-86
2022/10/28 01:43:28;;;;;;;20.00;9.48;;;14.40;99.90;;;;;;4968754;28;20039;-88
2022/10/28 01:46:04;;;;;;;18.02;9.23;;;14.50;99.90;;;;;;4971563;28;20043;-87
2022/10/28 01:48:46;;;;;;;19.67;10.00;;;14.40;99.90;;;;;;4963688;28;20035;-88
2022/10/28 01:51:24;;;;;;;18.93;9.47;;;14.40;99.90;;;;;;4950190;28;20035;-87
2022/10/28 01:53:52;;;;;;;16.52;10.05;;;14.40;99.90;;;;;;4951762;28;20604;-88
2022/10/28 01:56:23;;;;;;;19.20;9.77;;;14.30;99.90;;;;;;4951171;28;20488;-88
2022/10/28 01:58:51;;;;;;;19.15;9.95;;;14.30;99.90;;;;;;4950992;28;20043;-86
2022/10/28 02:01:17;;;;;;;16.80;8.93;;;14.30;99.90;;;;;;4985730;28;20128;-87
2022/10/28 02:03:46;;;;;;;19.30;9.88;;;14.30;99.90;;;;;;4917198;28;20039;-87
2022/10/28 02:06:17;;;;;;;20.35;9.60;;;14.30;99.90;;;;;;4968876;28;20086;-87
2022/10/28 02:08:49;;;;;;;23.97;11.07;;;14.30;99.90;;;;;;4983918;28;20077;-87
2022/10/28 02:11:23;;;;;;;23.60;9.90;;;14.30;99.90;;;;;;4969576;28;20062;-86
2022/10/28 02:14:06;;;;;;;19.05;9.93;;;14.20;99.90;;;;;;4959531;28;20046;-87
2022/10/28 02:16:38;;;;;;;;;;;14.20;99.90;;;;;;4957799;28;20054;-87
2022/10/28 02:19:32;;;;;;;22.58;10.20;;;14.20;99.90;;;;;;4966580;28;19962;-87
2022/10/28 02:22:01;;;;;;;14.00;9.55;;;14.20;99.90;;;;;;4950010;28;20050;-85
2022/10/28 02:24:37;;;;;;;17.02;10.20;;;14.20;99.90;;;;;;4952950;28;20039;-87
2022/10/28 02:27:15;;;;;;;18.45;10.50;;;14.10;99.90;;;;;;4982248;28;20039;-87
2022/10/28 02:30:00;;;;;;;18.02;9.70;;;14.10;99.90;;;;;;4968938;28;20804;-85
2022/10/28 02:32:29;;;;;;;18.65;10.52;;;14.10;99.90;;;;;;4968629;28;20039;-87
2022/10/28 02:35:00;;;;;;;17.88;10.07;;;14.10;99.90;;;;;;4969185;28;20039;-87
2022/10/28 02:37:31;;;;;;;19.60;10.60;;;14.00;99.90;;;;;;4971997;28;20463;-87
2022/10/28 02:40:01;;;;;;;17.95;10.27;;;14.10;99.90;;;;;;4972949;28;20195;-87
2022/10/28 02:42:32;;;;;;;20.92;9.63;;;14.00;99.90;;;;;;4972029;28;20567;-87
2022/10/28 02:45:08;;;;;;;15.00;9.27;;;14.00;99.90;;;;;;4955935;28;20030;-87
2022/10/28 02:47:37;;;;;;;19.25;9.40;;;13.90;99.90;;;;;;4964575;28;20046;-87
2022/10/28 02:50:08;;;;;;;17.52;9.30;;;13.90;99.90;;;;;;4950625;28;20042;-87
2022/10/28 02:52:34;;;;;;;19.48;9.60;;;13.90;99.90;;;;;;4949507;28;20551;-87
2022/10/28 02:55:05;;;;;;;17.00;9.30;;;13.80;99.90;;;;;;4940187;28;20105;-87
2022/10/28 02:57:34;;;;;;;14.10;9.10;;;13.80;99.90;;;;;;4967897;28;20071;-87
2022/10/28 03:00:07;;;;;;;17.58;10.07;;;13.80;99.90;;;;;;4974135;28;20039;-88
2022/10/28 03:02:32;;;;;;;;;;;13.80;99.90;;;;;;4953048;28;20061;-87
2022/10/28 03:04:58;;;;;;;14.52;8.70;;;13.70;99.90;;;;;;4970640;28;20012;-88
2022/10/28 03:07:24;;;;;;;18.30;9.70;;;13.70;99.90;;;;;;4925809;28;20042;-88
2022/10/28 03:09:50;;;;;;;15.63;8.38;;;13.60;99.90;;;;;;4951189;28;20042;-88
2022/10/28 03:12:16;;;;;;;15.43;9.32;;;13.60;99.90;;;;;;4939640;28;20509;-88
2022/10/28 03:14:41;;;;;;;20.13;9.23;;;13.50;99.90;;;;;;4974711;28;20355;-87
2022/10/28 03:17:08;;;;;;;17.73;10.07;;;13.60;99.90;;;;;;4972899;28;20042;-87
2022/10/28 03:19:33;;;;;;;17.65;9.85;;;13.50;99.90;;;;;;4977519;28;20039;-88
2022/10/28 03:21:59;;;;;;;21.30;10.18;;;13.50;99.90;;;;;;4958580;28;20041;-87
2022/10/28 03:24:25;;;;;;;15.38;9.20;;;13.50;99.90;;;;;;4962239;28;20039;-87
2022/10/28 03:26:51;;;;;;;19.85;9.35;;;13.50;99.90;;;;;;4954716;28;20069;-87
2022/10/28 03:29:16;;;;;;;16.92;9.02;;;13.80;99.90;;;;;;4954303;28;20481;-87
2022/10/28 03:31:42;;;;;;;15.82;8.45;;;13.40;99.90;;;;;;4946732;28;20101;-87
2022/10/28 03:34:17;;;;;;;18.48;8.95;;;13.40;99.90;;;;;;5112383;27;20390;-73
2022/10/28 03:36:43;;;;;;;14.93;9.25;;;13.40;99.90;;;;;;5110787;28;20036;-73
2022/10/28 03:39:08;;;;;;;15.95;9.73;;;13.40;99.90;;;;;;5087547;28;20028;-74
2022/10/28 03:41:34;;;;;;;17.42;9.05;;;13.30;99.90;;;;;;5084292;28;20036;-73
2022/10/28 03:44:00;;;;;;;17.17;9.35;;;13.30;99.90;;;;;;5101232;28;20044;-74
2022/10/28 03:46:26;;;;;;;16.50;10.30;;;13.30;99.90;;;;;;5087108;28;20042;-74
2022/10/28 03:48:52;;;;;;;18.70;9.20;;;13.30;99.90;;;;;;5102465;28;20047;-74
2022/10/28 03:51:17;;;;;;;14.57;8.82;;;13.20;99.90;;;;;;5101464;28;20046;-73
2022/10/28 03:53:43;;;;;;;16.10;9.48;;;13.20;99.90;;;;;;5082047;28;20036;-74
2022/10/28 03:56:10;;;;;;;16.27;9.77;;;13.20;99.90;;;;;;5073892;28;20036;-73
2022/10/28 03:58:36;;;;;;;16.55;9.32;;;13.10;99.90;;;;;;5083949;28;20698;-74
2022/10/28 04:01:02;;;;;;;16.85;9.30;;;13.30;99.90;;;;;;5099457;28;20043;-74
2022/10/28 04:03:28;;;;;;;18.70;10.13;;;13.10;99.90;;;;;;5101820;28;20137;-74
2022/10/28 04:05:54;;;;;;;17.40;10.48;;;13.10;99.90;;;;;;5104837;28;20509;-74
2022/10/28 04:08:20;;;;;;;20.75;10.23;;;13.10;99.90;;;;;;5084786;28;20086;-74
2022/10/28 04:10:48;;;;;;;13.45;9.27;;;13.10;99.90;;;;;;5080725;28;20123;-74
2022/10/28 04:13:15;;;;;;;17.63;10.25;;;13.10;99.90;;;;;;5102192;28;20042;-74
2022/10/28 04:15:41;;;;;;;17.35;9.80;;;13.10;99.90;;;;;;5081083;28;20036;-73
2022/10/28 04:18:07;;;;;;;23.35;10.45;;;13.10;99.90;;;;;;5083682;28;20044;-73
2022/10/28 04:20:33;;;;;;;18.90;10.68;;;13.00;99.90;;;;;;5102443;28;20105;-73
2022/10/28 04:22:59;;;;;;;16.98;10.23;;;13.00;99.90;;;;;;5102467;28;20036;-74
2022/10/28 04:25:26;;;;;;;18.02;10.15;;;13.00;99.90;;;;;;5096836;28;20040;-75
2022/10/28 04:27:53;;;;;;;20.23;11.50;;;13.10;99.90;;;;;;5101197;28;20043;-74
2022/10/28 04:30:19;;;;;;;24.00;10.90;;;13.00;99.90;;;;;;5085060;28;20662;-74
2022/10/28 04:32:45;;;;;;;19.40;10.85;;;13.10;99.90;;;;;;5098871;28;20565;-74
2022/10/28 04:35:12;;;;;;;19.27;10.80;;;13.00;99.90;;;;;;5083495;28;20048;-74
2022/10/28 04:37:38;;;;;;;15.20;10.93;;;13.10;99.90;;;;;;5099015;28;20039;-74
2022/10/28 04:40:05;;;;;;;18.85;10.32;;;13.10;99.90;;;;;;5080363;28;20086;-74
2022/10/28 04:42:31;;;;;;;15.70;10.55;;;13.10;99.90;;;;;;5064809;28;20093;-73
2022/10/28 04:44:57;;;;;;;21.88;10.43;;;13.10;99.90;;;;;;5094914;28;20040;-73
2022/10/28 04:47:22;;;;;;;17.70;10.55;;;13.10;99.90;;;;;;5085649;28;20036;-74
2022/10/28 04:49:49;;;;;;;19.20;11.35;;;13.00;99.90;;;;;;5090893;28;20412;-74
2022/10/28 04:52:15;;;;;;;21.15;10.82;;;13.10;99.90;;;;;;5089313;28;20095;-73
2022/10/28 04:54:40;;;;;;;18.48;9.85;;;13.10;99.90;;;;;;5089360;28;20169;-72
2022/10/28 04:57:06;;;;;;;19.40;10.50;;;13.10;99.90;;;;;;5069769;28;20028;-74
2022/10/28 04:59:32;;;;;;;19.67;10.57;;;13.10;99.90;;;;;;5092207;28;20070;-74
2022/10/28 05:01:58;;;;;;;18.00;10.10;;;13.00;99.90;;;;;;5054998;28;20031;-74
2022/10/28 05:04:23;;;;;;;20.25;10.18;;;13.00;99.90;;;;;;5069654;28;20067;-73
2022/10/28 05:06:49;;;;;;;19.35;11.15;;;13.10;99.90;;;;;;5053549;28;20044;-73
2022/10/28 05:09:15;;;;;;;18.30;10.35;;;13.10;99.90;;;;;;5070416;28;20024;-74
2022/10/28 05:11:41;;;;;;;16.73;10.55;;;13.10;99.90;;;;;;5084670;28;20169;-74
2022/10/28 05:14:06;;;;;;;17.45;10.20;;;13.00;99.90;;;;;;5072003;28;20044;-74
2022/10/28 05:16:32;;;;;;;15.23;10.43;;;13.00;99.90;;;;;;5055305;28;20362;-73
2022/10/28 05:18:58;;;;;;;16.70;9.63;;;13.00;99.90;;;;;;5052651;28;20032;-74
2022/10/28 05:21:24;;;;;;;17.83;10.02;;;12.90;99.90;;;;;;5033817;28;20111;-74
2022/10/28 05:23:50;;;;;;;18.15;10.20;;;12.90;99.90;;;;;;5052691;28;20176;-74
2022/10/28 05:26:15;;;;;;;17.85;10.15;;;12.90;99.90;;;;;;5053180;28;20508;-75
2022/10/28 05:28:42;;;;;;;15.75;9.60;;;12.90;99.90;;;;;;5079064;28;20391;-74
2022/10/28 05:31:08;;;;;;;18.75;10.10;;;12.80;99.90;;;;;;5053728;28;20055;-74
2022/10/28 05:33:34;;;;;;;15.02;9.85;;;12.80;99.90;;;;;;5079127;28;20047;-74
2022/10/28 05:36:00;;;;;;;17.77;10.05;;;12.70;99.90;;;;;;5063981;28;20040;-74
2022/10/28 05:38:27;;;;;;;20.70;9.30;;;12.70;99.90;;;;;;5064858;28;20139;-75
2022/10/28 05:40:53;;;;;;;15.57;9.80;;;12.60;99.90;;;;;;5081502;28;20756;-74
2022/10/28 05:43:18;;;;;;;17.83;10.55;;;12.60;99.90;;;;;;5079120;28;20115;-75
2022/10/28 05:45:51;;;;;;;15.55;9.70;;;12.50;99.90;;;;;;5052042;28;20036;-75
2022/10/28 05:48:17;;;;;;;13.50;9.10;;;12.50;99.90;;;;;;5081950;28;20055;-75
2022/10/28 05:50:43;;;;;;;15.98;8.82;;;12.40;99.90;;;;;;5087108;28;20031;-74
2022/10/28 05:53:08;;;;;;;18.00;9.20;;;12.40;99.90;;;;;;5079236;28;20417;-74
2022/10/28 05:55:34;;;;;;;19.30;9.20;;;12.30;99.90;;;;;;5081099;28;20036;-74
2022/10/28 05:58:01;;;;;;;16.55;8.80;;;12.30;99.90;;;;;;5049166;28;20035;-77
2022/10/28 06:00:28;;;;;;;18.20;9.05;;;12.30;99.90;;;;;;5079555;28;20047;-76
2022/10/28 06:03:09;;;;;;;18.60;9.82;;;12.20;99.90;;;;;;5078173;28;20044;-76
2022/10/28 06:05:40;;;;;;;13.45;8.85;;;12.20;99.90;;;;;;5079460;28;20511;-77
2022/10/28 06:08:10;;;;;;;16.70;8.60;;;12.10;99.90;;;;;;5079801;28;20120;-76
2022/10/28 06:10:35;;;;;;;13.60;9.23;;;12.10;99.90;;;;;;5083774;28;20489;-76
2022/10/28 06:13:01;;;;;;;21.63;10.15;;;12.00;99.90;;;;;;5080437;28;20055;-74
2022/10/28 06:15:27;;;;;;;16.92;9.00;;;12.00;99.90;;;;;;5067129;28;20422;-76
2022/10/28 06:17:53;;;;;;;17.70;9.15;;;12.00;99.90;;;;;;5078646;28;20097;-75
2022/10/28 06:20:19;;;;;;;21.17;9.77;;;12.00;99.90;;;;;;5070145;28;20040;-75
2022/10/28 06:22:50;;;;;;;19.00;10.20;;;12.00;99.90;;;;;;5077634;28;20106;-75
2022/10/28 06:25:17;;;;;;;19.15;9.77;;;12.00;99.90;;;;;;5084093;28;20573;-75
2022/10/28 06:27:42;;;;;;;17.50;10.00;;;12.00;99.90;;;;;;5088592;28;20456;-75
2022/10/28 06:30:11;;;;;;;16.67;10.00;;;12.10;99.90;;;;;;5089030;28;20031;-75
2022/10/28 06:32:37;;;;;;;16.08;9.65;;;12.10;99.90;;;;;;5051375;28;20079;-75
2022/10/28 06:35:03;;;;;;;20.80;9.95;;;12.10;99.90;;;;;;5085152;28;20176;-75
2022/10/28 06:37:29;;;;;;;18.85;10.00;;;12.10;99.90;;;;;;5064394;28;20051;-75
2022/10/28 06:39:57;;;;;;;16.73;10.73;;;12.10;99.90;;;;;;5072754;28;20035;-75
2022/10/28 06:42:23;;;;;;;19.85;9.32;;;12.10;99.90;;;;;;5054306;28;20093;-75
2022/10/28 06:44:49;;;;;;;19.65;10.32;;;12.20;99.90;;;;;;5057315;28;20146;-75
2022/10/28 06:47:15;;;;;;;17.45;10.13;;;12.20;99.90;;;;;;5054460;28;20509;-75
2022/10/28 06:49:41;;;;;;;22.98;11.15;;;12.20;99.90;;;;;;5087498;28;20042;-76
2022/10/28 06:52:07;;;;;;;22.92;10.80;;;12.20;99.90;;;;;;5084530;28;20119;-76
2022/10/28 06:54:32;;;;;;;19.10;10.25;;;12.30;99.90;;;;;;5073335;28;20039;-76
2022/10/28 06:56:58;;;;;;;22.42;11.15;;;12.30;99.90;;;;;;5086420;28;20609;-76
2022/10/28 06:59:24;;;;;;;18.45;9.90;;;12.30;99.90;;;;;;5069236;28;20032;-76
2022/10/28 07:01:49;;;;;;;21.38;10.77;;;12.30;99.90;;;;;;5081995;28;20411;-76
2022/10/28 07:04:18;;;;;;;23.00;10.65;;;12.40;99.90;;;;;;5087644;28;20044;-76
2022/10/28 07:06:44;;;;;;;20.75;11.27;;;12.50;99.90;;;;;;5073631;28;20044;-76
2022/10/28 07:09:13;;;;;;;22.05;10.65;;;12.60;99.90;;;;;;5059041;28;20108;-76
2022/10/28 07:11:44;;;;;;;24.98;11.75;;;12.70;99.90;;;;;;5072282;28;20474;-76
2022/10/28 07:14:10;;;;;;;20.80;10.52;;;12.80;99.90;;;;;;5072762;28;20513;-75
2022/10/28 07:16:36;;;;;;;24.27;11.10;;;12.90;99.90;;;;;;5073411;28;20062;-75
2022/10/28 07:19:02;;;;;;;18.00;9.52;;;13.00;99.90;;;;;;5074047;28;20065;-75
2022/10/28 07:21:28;;;;;;;21.40;10.35;;;13.00;99.90;;;;;;5089591;28;20032;-74
2022/10/28 07:23:55;;;;;;;18.77;10.50;;;13.10;99.90;;;;;;5068027;28;20040;-75
2022/10/28 07:26:22;;;;;;;22.00;11.32;;;13.10;99.90;;;;;;5070312;28;20402;-74
2022/10/28 07:28:48;;;;;;;18.50;9.45;;;13.20;99.90;;;;;;5088031;28;20052;-73
2022/10/28 07:31:14;;;;;;;20.95;11.32;;;13.30;99.90;;;;;;5087483;28;20120;-75
2022/10/28 07:33:39;;;;;;;22.25;10.60;;;13.40;99.90;;;;;;5070356;28;20414;-74
2022/10/28 07:36:06;;;;;;;20.73;10.15;;;13.50;99.90;;;;;;5073122;28;20146;-73
2022/10/28 07:38:35;;;;;;;18.23;9.45;;;13.70;99.90;;;;;;5093525;28;20073;-73
2022/10/28 07:41:06;;;;;;;18.83;10.30;;;13.80;99.90;;;;;;5108632;28;20325;-73
2022/10/28 07:43:38;;;;;;;16.42;8.77;;;13.90;99.90;;;;;;5090515;28;20046;-73
2022/10/28 07:46:05;;;;;;;22.33;9.32;;;14.00;99.90;;;;;;5091493;28;20156;-73
2022/10/28 07:48:35;;;;;;;20.25;8.65;;;14.20;99.90;;;;;;5068714;28;20044;-73
2022/10/28 07:51:05;;;;;;;20.40;8.07;;;14.30;99.90;;;;;;5090536;28;20040;-73
2022/10/28 07:53:31;;;;;;;20.35;8.15;;;14.40;99.90;;;;;;5071711;28;20097;-73
2022/10/28 07:55:59;;;;;;;18.85;7.90;;;14.60;99.90;;;;;;5071347;28;20047;-73
2022/10/28 07:58:25;;;;;;;17.60;7.30;;;14.70;99.90;;;;;;5082122;28;20439;-72
2022/10/28 08:00:51;;;;;;;13.18;7.28;;;14.90;99.90;;;;;;5065927;28;20044;-73
2022/10/28 08:03:20;;;;;;;16.95;8.75;;;15.00;99.90;;;;;;5083847;28;20451;-72
2022/10/28 08:05:46;;;;;;;14.52;6.65;;;15.10;99.90;;;;;;5080208;28;20043;-75
2022/10/28 08:08:12;;;;;;;20.77;7.15;;;15.30;99.90;;;;;;5066891;28;20512;-74
2022/10/28 08:10:38;;;;;;;13.38;6.63;;;15.30;99.90;;;;;;5054455;28;20036;-74
2022/10/28 08:13:05;;;;;;;16.13;7.03;;;15.40;99.90;;;;;;5054147;28;20071;-74
2022/10/28 08:15:32;;;;;;;13.88;7.07;;;15.50;99.90;;;;;;5082902;28;20109;-74
2022/10/28 08:17:57;;;;;;;13.05;6.10;;;15.50;99.90;;;;;;5070486;28;20067;-74
2022/10/28 08:20:23;;;;;;;14.43;6.57;;;15.70;99.90;;;;;;5069744;28;20688;-74
2022/10/28 08:22:49;;;;;;;16.02;7.00;;;15.80;99.90;;;;;;5091960;27;20549;-74
2022/10/28 08:25:15;;;;;;;15.40;6.82;;;15.90;99.90;;;;;;5080701;28;20031;-71
2022/10/28 08:27:41;;;;;;;14.13;6.72;;;16.00;99.90;;;;;;5070102;28;20066;-73
2022/10/28 08:30:08;;;;;;;20.65;6.45;;;16.00;99.90;;;;;;5069211;28;20047;-74
2022/10/28 08:32:34;;;;;;;17.98;7.03;;;16.10;99.90;;;;;;5085355;28;20039;-73
2022/10/28 08:35:00;;;;;;;11.77;6.10;;;16.20;99.90;;;;;;5088981;28;20126;-73
2022/10/28 08:37:26;;;;;;;18.20;7.95;;;16.20;99.90;;;;;;5089859;28;20495;-73
2022/10/28 08:39:52;;;;;;;12.80;6.18;;;16.40;99.90;;;;;;5076499;28;20480;-74
2022/10/28 08:42:33;;;;;;;13.98;6.57;;;16.50;99.90;;;;;;5066306;28;20070;-73
2022/10/28 08:45:26;;;;;;;17.23;7.57;;;16.50;99.90;;;;;;5068335;28;20432;-74
2022/10/28 08:48:20;;;;;;;17.17;6.60;;;16.60;99.90;;;;;;5093655;27;20493;-73
2022/10/28 08:50:51;;;;;;;13.90;6.03;;;16.70;99.90;;;;;;5084687;28;21228;-74
2022/10/28 08:53:43;;;;;;;12.10;5.45;;;16.80;99.90;;;;;;5069143;28;20032;-74
2022/10/28 08:56:34;;;;;;;12.75;5.80;;;16.90;99.90;;;;;;5070403;28;20057;-74
2022/10/28 08:59:04;;;;;;;13.65;7.13;;;16.90;99.90;;;;;;5069967;28;20091;-74
2022/10/28 09:01:43;;;;;;;14.60;6.47;;;17.00;99.90;;;;;;5069814;28;20031;-73
2022/10/28 09:04:23;;;;;;;15.30;6.68;;;17.00;99.90;;;;;;5048581;28;20420;-74
2022/10/28 09:06:48;;;;;;;17.00;7.07;;;17.00;99.90;;;;;;5070240;28;20183;-74
2022/10/28 09:09:19;;;;;;;14.50;6.28;;;17.20;99.90;;;;;;5071242;28;21207;-74
2022/10/28 09:12:32;;;;;;;9.35;5.20;;;17.30;99.90;;;;;;5073163;28;20200;-72
2022/10/28 09:15:26;;;;;;;12.43;5.93;;;17.50;99.90;;;;;;5047657;28;20548;-74
2022/10/28 09:17:53;;;;;;;21.13;6.25;;;17.70;99.90;;;;;;5070110;28;20044;-73
2022/10/28 09:20:22;;;;;;;17.83;6.30;;;17.80;99.90;;;;;;5068667;28;20101;-73
2022/10/28 09:23:12;;;;;;;12.65;5.88;;;17.90;99.90;;;;;;5071599;28;20113;-73
2022/10/28 09:26:03;;;;;;;11.52;5.40;;;18.00;99.90;;;;;;5074318;28;20096;-73
2022/10/28 09:29:13;;;;;;;16.80;6.07;;;18.10;99.90;;;;;;5090287;28;20044;-72
2022/10/28 09:31:51;;;;;;;14.13;5.75;;;18.20;99.90;;;;;;5070724;28;20032;-72
2022/10/28 09:34:40;;;;;;;13.07;5.85;;;18.20;99.90;;;;;;5087174;28;20077;-73
2022/10/28 09:37:21;;;;;;;16.67;5.90;;;18.30;99.90;;;;;;5081958;28;20508;-73
2022/10/28 09:39:51;;;;;;;12.32;5.43;;;18.30;99.90;;;;;;5084379;28;20058;-73
2022/10/28 09:42:56;;;;;;;14.40;5.85;;;18.20;99.90;;;;;;5089605;28;20639;-73
2022/10/28 09:45:26;;;;;;;14.13;5.93;;;18.30;99.90;;;;;;5088351;28;20082;-73
2022/10/28 09:48:04;;;;;;;16.42;5.72;;;18.30;99.90;;;;;;5107321;27;20108;-73
2022/10/28 09:50:31;;;;;;;11.30;5.63;;;18.40;99.90;;;;;;5086602;28;20044;-73
2022/10/28 09:53:10;;;;;;;13.60;5.70;;;18.40;99.90;;;;;;5087035;28;20044;-73
2022/10/28 09:55:36;;;;;;;18.67;6.10;;;18.30;99.90;;;;;;5077899;28;20036;-73
2022/10/28 09:58:03;;;;;;;11.15;5.28;;;18.40;99.90;;;;;;5078040;28;20109;-74
2022/10/28 10:00:30;;;;;;;15.88;5.68;;;18.40;99.90;;;;;;5073967;28;20036;-74
2022/10/28 10:02:57;;;;;;;19.27;5.97;;;18.40;99.90;;;;;;5059882;28;20513;-73
2022/10/28 10:05:24;;;;;;;17.27;6.68;;;18.40;99.90;;;;;;5067869;28;20043;-73
2022/10/28 10:08:02;;;;;;;14.48;6.15;;;18.40;99.90;;;;;;5076588;28;20047;-73
2022/10/28 10:10:51;;;;;;;18.10;5.57;;;18.40;99.90;;;;;;5064428;28;20044;-73
2022/10/28 10:13:22;;;;;;;13.45;5.75;;;18.40;99.90;;;;;;5084675;28;20229;-73
2022/10/28 10:15:53;;;;;;;17.65;5.68;;;18.40;99.90;;;;;;5064728;28;20484;-73
2022/10/28 10:18:27;;;;;;;15.63;5.80;;;18.40;99.90;;;;;;5087329;28;20106;-73
2022/10/28 10:20:57;;;;;;;17.88;6.40;;;18.40;99.90;;;;;;5076501;28;20528;-72
2022/10/28 10:23:36;;;;;;;10.20;6.07;;;18.50;99.90;;;;;;5081568;28;20396;-73
2022/10/28 10:26:08;;;;;;;15.05;5.35;;;18.50;99.90;;;;;;5064809;28;20386;-73
2022/10/28 10:28:38;;;;;;;13.75;6.68;;;18.50;99.90;;;;;;5082947;28;20401;-73
2022/10/28 10:31:06;;;;;;;11.50;5.78;;;18.50;99.90;;;;;;5078776;28;20079;-73
2022/10/28 10:33:38;;;;;;;12.65;5.53;;;18.50;99.90;;;;;;5079742;28;20573;-73
2022/10/28 10:36:14;;;;;;;20.13;5.67;;;18.50;99.90;;;;;;5060719;28;20055;-71
2022/10/28 10:38:57;;;;;;;12.55;6.35;;;18.60;99.90;;;;;;5079311;28;20058;-72
2022/10/28 10:41:36;;;;;;;16.30;6.30;;;18.60;99.90;;;;;;5083305;28;20384;-71
2022/10/28 10:44:21;;;;;;;15.25;6.15;;;18.60;99.90;;;;;;5066923;28;20063;-72
2022/10/28 10:47:00;;;;;;;12.93;5.97;;;18.70;99.90;;;;;;5076018;28;20072;-71
2022/10/28 10:49:27;;;;;;;14.60;6.10;;;18.70;99.90;;;;;;5059295;28;20039;-71
2022/10/28 10:52:06;;;;;;;20.55;6.22;;;18.80;99.90;;;;;;5092399;28;21787;-71
2022/10/28 10:54:36;;;;;;;21.45;6.88;;;18.80;99.90;;;;;;5074674;28;20086;-71
2022/10/28 10:57:16;;;;;;;11.55;5.47;;;18.80;99.90;;;;;;5080679;28;20040;-71
2022/10/28 10:59:48;;;;;;;12.55;5.68;;;18.90;99.90;;;;;;5083235;28;20137;-71
2022/10/28 11:02:29;;;;;;;31.17;8.27;;;18.90;99.90;;;;;;5061617;28;20385;-71
2022/10/28 11:05:05;;;;;;;14.38;6.07;;;18.90;99.90;;;;;;5081359;28;20658;-71
2022/10/28 11:07:31;;;;;;;12.20;5.30;;;19.00;99.90;;;;;;5057640;28;20477;-70
2022/10/28 11:09:59;;;;;;;12.77;5.22;;;19.00;99.90;;;;;;5074941;28;20078;-71
2022/10/28 11:12:31;;;;;;;14.27;5.70;;;19.00;99.90;;;;;;5082892;28;20048;-72
2022/10/28 11:14:59;;;;;;;15.15;4.88;;;19.00;99.90;;;;;;5087190;28;20729;-70
2022/10/28 11:17:28;;;;;;;15.43;5.35;;;19.00;99.90;;;;;;5076348;28;20036;-71
2022/10/28 11:19:58;;;;;;;18.15;6.22;;;19.10;99.90;;;;;;5077735;28;20048;-70
2022/10/28 11:22:56;;;;;;;14.27;5.65;;;19.10;99.90;;;;;;5078145;28;20122;-71
2022/10/28 11:25:46;;;;;;;14.30;5.55;;;19.10;99.90;;;;;;5082540;28;20076;-70
2022/10/28 11:28:34;;;;;;;15.38;5.68;;;19.20;99.90;;;;;;5060689;28;20036;-70
2022/10/28 11:31:31;;;;;;;14.82;5.20;;;19.40;99.90;;;;;;5078796;28;20087;-71
2022/10/28 11:34:12;;;;;;;12.27;5.22;;;19.60;99.90;;;;;;5069940;28;20512;-70
2022/10/28 11:37:09;;;;;;;12.68;5.18;;;19.80;99.90;;;;;;5077449;28;20034;-71
2022/10/28 11:39:52;;;;;;;17.08;5.82;;;20.10;99.90;;;;;;5079459;28;20044;-71
2022/10/28 11:42:34;;;;;;;16.23;5.47;;;20.00;99.90;;;;;;5073061;28;20028;-71
2022/10/28 11:45:09;;;;;;;18.50;5.93;;;20.10;99.90;;;;;;5076048;28;20458;-70
2022/10/28 11:47:56;;;;;;;18.85;5.45;;;20.10;99.90;;;;;;5076183;28;20040;-70
2022/10/28 11:50:30;;;;;;;17.55;6.28;;;20.10;99.90;;;;;;5076443;28;21256;-70
2022/10/28 11:53:29;;;;;;;15.80;5.93;;;20.10;99.90;;;;;;5078645;28;20142;-70
2022/10/28 11:56:07;;;;;;;17.70;5.65;;;20.10;99.90;;;;;;5076267;28;21142;-70
2022/10/28 11:58:59;;;;;;;18.65;6.03;;;20.10;99.90;;;;;;5081588;28;20044;-70
2022/10/28 12:01:47;;;;;;;18.17;5.97;;;20.20;99.90;;;;;;5051053;28;20049;-70
2022/10/28 12:04:13;;;;;;;16.27;6.65;;;20.30;99.90;;;;;;5078097;28;20079;-70
2022/10/28 12:07:01;;;;;;;16.92;4.97;;;20.30;99.90;;;;;;5077382;28;20130;-70
2022/10/28 12:10:02;;;;;;;13.27;5.70;;;20.40;99.90;;;;;;5084769;28;20059;-69
2022/10/28 12:12:41;;;;;;;22.15;6.22;;;20.50;99.90;;;;;;5077618;28;20140;-70
2022/10/28 12:15:33;;;;;;;22.30;6.00;;;20.50;99.90;;;;;;5081583;28;20051;-70
2022/10/28 12:18:17;;;;;;;16.98;5.68;;;20.50;99.90;;;;;;5077921;28;20723;-70
2022/10/28 12:20:56;;;;;;;16.33;5.35;;;20.50;99.90;;;;;;5082743;28;20082;-70
2022/10/28 12:23:23;;;;;;;16.05;6.15;;;20.50;99.90;;;;;;5060617;28;20362;-70
2022/10/28 12:25:53;;;;;;;17.08;5.78;;;20.50;99.90;;;;;;5081324;28;20061;-70
2022/10/28 12:28:29;;;;;;;12.90;5.28;;;20.50;99.90;;;;;;5080510;28;20044;-70
2022/10/28 12:30:58;;;;;;;17.42;5.63;;;20.50;99.90;;;;;;5080924;28;20052;-70
2022/10/28 12:33:43;;;;;;;16.90;5.85;;;20.50;99.90;;;;;;5074926;28;20045;-70
2022/10/28 12:36:09;;;;;;;14.48;5.97;;;20.50;99.90;;;;;;5076377;28;20044;-70
2022/10/28 12:39:02;;;;;;;20.02;6.30;;;20.50;99.90;;;;;;5083976;28;20565;-70
2022/10/28 12:42:02;;;;;;;15.60;5.88;;;20.50;99.90;;;;;;5079722;28;20039;-69
2022/10/28 12:44:31;;;;;;;19.10;6.05;;;20.50;99.90;;;;;;5064927;28;20055;-70
2022/10/28 12:47:07;;;;;;;8.88;5.20;;;20.50;99.90;;;;;;5076508;28;20130;-70
2022/10/28 12:49:46;;;;;;;13.52;5.63;;;20.50;99.90;;;;;;5078189;28;20309;-69
2022/10/28 12:52:37;;;;;;;13.05;5.13;;;20.50;99.90;;;;;;5075646;28;20039;-70
2022/10/28 12:55:17;;;;;;;14.95;5.63;;;20.60;99.90;;;;;;5078929;28;20048;-70
2022/10/28 12:57:56;;;;;;;15.45;5.30;;;20.50;99.90;;;;;;5076103;28;20310;-70
2022/10/28 13:00:26;;;;;;;13.55;5.88;;;20.50;99.90;;;;;;5064133;28;20097;-69